createdAt,value
2022-12-11T00:00:15.647Z,-0.50
2022-12-11T00:05:29.735Z,-0.50
2022-12-11T00:07:57.366Z,-0.50
2022-12-11T00:10:24.019Z,-0.50
2022-12-11T00:12:50.668Z,-0.50
2022-12-11T00:15:17.320Z,-0.50
2022-12-11T00:17:43.988Z,-0.50
2022-12-11T00:20:11.023Z,-0.50
2022-12-11T00:22:37.677Z,-0.50
2022-12-11T00:25:04.669Z,-0.40
2022-12-11T00:27:31.337Z,-0.50
2022-12-11T00:29:58.095Z,-0.40
2022-12-11T00:32:24.762Z,-0.30
2022-12-11T00:34:51.385Z,-0.30
2022-12-11T00:37:18.236Z,-0.30
2022-12-11T00:39:45.835Z,-0.30
2022-12-11T00:42:12.453Z,-0.20
2022-12-11T00:44:39.029Z,-0.30
2022-12-11T00:47:05.671Z,-0.30
2022-12-11T00:49:32.301Z,-0.30
2022-12-11T00:51:59.044Z,-0.30
2022-12-11T00:54:25.652Z,-0.30
2022-12-11T00:56:52.290Z,-0.30
2022-12-11T00:59:18.967Z,-0.30
2022-12-11T01:01:45.702Z,-0.30
2022-12-11T01:04:12.336Z,-0.30
2022-12-11T01:06:39.550Z,-0.40
2022-12-11T01:09:24.725Z,-0.40
2022-12-11T01:11:51.938Z,-0.30
2022-12-11T01:14:20.119Z,-0.30
2022-12-11T01:16:46.867Z,-0.30
2022-12-11T01:19:13.526Z,-0.30
2022-12-11T01:21:41.069Z,-0.30
2022-12-11T01:24:07.718Z,-0.20
2022-12-11T01:26:34.525Z,-0.10
2022-12-11T01:29:01.464Z,-0.20
2022-12-11T01:31:28.128Z,-0.30
2022-12-11T01:33:55.897Z,-0.30
2022-12-11T01:36:25.526Z,-0.20
2022-12-11T01:38:54.274Z,-0.20
2022-12-11T01:41:21.438Z,-0.10
2022-12-11T01:43:57.889Z,-0.10
2022-12-11T01:46:25.954Z,-0.10
2022-12-11T01:48:53.540Z,0.00
2022-12-11T01:51:20.963Z,0.00
2022-12-11T01:53:52.610Z,0.00
2022-12-11T01:56:19.923Z,0.10
2022-12-11T01:58:57.197Z,0.00
2022-12-11T02:01:42.232Z,0.00
2022-12-11T02:04:10.891Z,0.00
2022-12-11T02:06:40.406Z,0.10
2022-12-11T02:09:13.202Z,0.00
2022-12-11T02:12:11.948Z,0.00
2022-12-11T02:14:44.253Z,0.00
2022-12-11T02:17:13.932Z,0.00
2022-12-11T02:19:48.270Z,0.00
2022-12-11T02:22:33.400Z,0.00
2022-12-11T02:25:33.874Z,0.10
2022-12-11T02:28:33.548Z,0.20
2022-12-11T02:31:27.744Z,0.20
2022-12-11T02:34:17.306Z,0.20
2022-12-11T02:36:48.663Z,0.10
2022-12-11T02:39:17.324Z,0.10
2022-12-11T02:41:50.789Z,0.10
2022-12-11T02:44:21.417Z,0.10
2022-12-11T02:46:48.073Z,0.10
2022-12-11T02:49:15.883Z,0.10
2022-12-11T02:51:44.214Z,0.10
2022-12-11T02:54:20.803Z,0.20
2022-12-11T02:56:54.155Z,0.10
2022-12-11T02:59:26.049Z,0.20
2022-12-11T03:01:52.765Z,0.20
2022-12-11T03:04:19.386Z,0.20
2022-12-11T03:06:51.241Z,0.20
2022-12-11T03:09:23.500Z,0.30
2022-12-11T03:11:50.100Z,0.10
2022-12-11T03:14:16.743Z,0.10
2022-12-11T03:17:03.673Z,0.10
2022-12-11T03:19:47.856Z,0.10
2022-12-11T03:22:37.059Z,0.10
2022-12-11T03:25:10.276Z,0.10
2022-12-11T03:27:45.008Z,0.10
2022-12-11T03:30:20.280Z,0.20
2022-12-11T03:33:00.655Z,0.30
2022-12-11T03:35:34.167Z,0.30
2022-12-11T03:38:06.236Z,0.20
2022-12-11T03:40:35.526Z,0.30
2022-12-11T03:43:04.011Z,0.30
2022-12-11T03:45:32.186Z,0.30
2022-12-11T03:48:01.468Z,0.20
2022-12-11T03:50:30.775Z,0.20
2022-12-11T03:52:58.585Z,0.20
2022-12-11T03:55:26.494Z,0.20
2022-12-11T03:57:53.183Z,0.20
2022-12-11T04:00:20.993Z,0.20
2022-12-11T04:03:12.733Z,0.20
2022-12-11T04:05:55.183Z,0.20
2022-12-11T04:08:23.291Z,0.20
2022-12-11T04:11:11.048Z,0.30
2022-12-11T04:13:38.298Z,0.20
2022-12-11T04:16:06.684Z,0.20
2022-12-11T04:18:52.098Z,0.20
2022-12-11T04:21:39.614Z,0.20
2022-12-11T04:24:16.244Z,0.30
2022-12-11T04:26:45.206Z,0.30
2022-12-11T04:29:12.607Z,0.30
2022-12-11T04:31:39.231Z,0.20
2022-12-11T04:34:06.011Z,0.20
2022-12-11T04:36:32.593Z,0.30
2022-12-11T04:38:59.188Z,0.20
2022-12-11T04:41:25.903Z,0.20
2022-12-11T04:43:52.601Z,0.20
2022-12-11T04:46:22.323Z,0.20
2022-12-11T04:48:55.452Z,0.30
2022-12-11T04:51:24.009Z,0.30
2022-12-11T04:53:50.644Z,0.30
2022-12-11T04:56:17.406Z,0.20
2022-12-11T04:58:45.372Z,0.20
2022-12-11T05:01:14.451Z,0.20
2022-12-11T05:06:26.647Z,0.20
2022-12-11T05:08:53.665Z,0.10
2022-12-11T05:11:20.251Z,0.10
2022-12-11T05:13:46.979Z,0.10
2022-12-11T05:16:16.867Z,0.10
2022-12-11T05:18:43.759Z,0.10
2022-12-11T05:21:12.842Z,0.10
2022-12-11T05:23:40.046Z,0.10
2022-12-11T05:26:16.159Z,0.10
2022-12-11T05:28:43.896Z,0.10
2022-12-11T05:31:14.722Z,0.10
2022-12-11T05:33:41.606Z,0.10
2022-12-11T05:36:09.041Z,0.10
2022-12-11T05:38:36.134Z,0.10
2022-12-11T05:41:05.774Z,0.10
2022-12-11T05:43:34.078Z,0.10
2022-12-11T05:46:16.602Z,0.10
2022-12-11T05:48:45.986Z,0.10
2022-12-11T05:51:14.241Z,0.10
2022-12-11T05:53:42.275Z,0.10
2022-12-11T05:56:16.244Z,0.10
2022-12-11T05:58:44.794Z,0.10
2022-12-11T06:01:16.665Z,0.00
2022-12-11T06:03:43.555Z,0.00
2022-12-11T06:06:10.328Z,0.00
2022-12-11T06:08:37.014Z,0.10
2022-12-11T06:11:05.440Z,0.10
2022-12-11T06:13:32.237Z,0.00
2022-12-11T06:16:04.183Z,0.00
2022-12-11T06:18:31.674Z,0.00
2022-12-11T06:20:58.358Z,0.00
2022-12-11T06:23:24.963Z,0.10
2022-12-11T06:25:51.640Z,0.20
2022-12-11T06:28:18.248Z,0.20
2022-12-11T06:30:45.058Z,0.10
2022-12-11T06:33:11.671Z,0.10
2022-12-11T06:35:41.996Z,0.00
2022-12-11T06:38:10.539Z,0.10
2022-12-11T06:40:37.351Z,0.10
2022-12-11T06:43:03.969Z,0.10
2022-12-11T06:45:30.793Z,0.20
2022-12-11T06:47:58.183Z,0.10
2022-12-11T06:50:24.838Z,0.10
2022-12-11T06:52:51.434Z,0.20
2022-12-11T06:55:18.062Z,0.20
2022-12-11T06:57:44.679Z,0.20
2022-12-11T07:00:11.858Z,0.10
2022-12-11T07:02:38.589Z,0.10
2022-12-11T07:05:05.677Z,0.10
2022-12-11T07:07:32.300Z,0.10
2022-12-11T07:10:04.211Z,0.10
2022-12-11T07:12:34.509Z,0.10
2022-12-11T07:15:01.164Z,0.00
2022-12-11T07:17:29.161Z,0.00
2022-12-11T07:19:55.991Z,0.00
2022-12-11T07:22:22.777Z,0.00
2022-12-11T07:24:49.431Z,0.00
2022-12-11T07:27:16.122Z,0.00
2022-12-11T07:29:42.660Z,0.00
2022-12-11T07:32:09.456Z,0.10
2022-12-11T07:34:36.396Z,0.00
2022-12-11T07:37:03.165Z,0.00
2022-12-11T07:39:29.728Z,0.00
2022-12-11T07:41:56.314Z,0.00
2022-12-11T07:44:23.244Z,0.00
2022-12-11T07:46:49.795Z,0.00
2022-12-11T07:49:16.634Z,0.00
2022-12-11T07:51:43.535Z,0.10
2022-12-11T07:54:16.367Z,0.00
2022-12-11T07:56:52.739Z,0.10
2022-12-11T07:59:20.989Z,0.00
2022-12-11T08:01:47.675Z,0.00
2022-12-11T08:04:15.544Z,0.00
2022-12-11T08:06:43.011Z,0.10
2022-12-11T08:09:18.929Z,0.10
2022-12-11T08:11:50.023Z,0.10
2022-12-11T08:14:16.938Z,0.10
2022-12-11T08:16:44.242Z,0.10
2022-12-11T08:19:14.599Z,0.10
2022-12-11T08:21:41.299Z,0.10
2022-12-11T08:24:09.057Z,0.20
2022-12-11T08:26:35.831Z,0.10
2022-12-11T08:29:02.963Z,0.10
2022-12-11T08:31:30.388Z,0.20
2022-12-11T08:33:57.511Z,0.20
2022-12-11T08:36:24.784Z,0.30
2022-12-11T08:38:52.179Z,0.30
2022-12-11T08:41:27.428Z,0.40
2022-12-11T08:43:55.516Z,0.40
2022-12-11T08:46:26.502Z,0.40
2022-12-11T08:48:54.332Z,0.40
2022-12-11T08:51:22.913Z,0.30
2022-12-11T08:53:51.163Z,0.30
2022-12-11T08:56:20.728Z,0.30
2022-12-11T08:58:47.916Z,0.30
2022-12-11T09:01:21.623Z,0.40
2022-12-11T09:03:50.123Z,0.40
2022-12-11T09:06:19.614Z,0.50
2022-12-11T09:08:52.143Z,0.40
2022-12-11T09:11:22.342Z,0.40
2022-12-11T09:13:49.212Z,0.50
2022-12-11T09:16:18.456Z,0.50
2022-12-11T09:18:47.204Z,0.50
2022-12-11T09:21:17.133Z,0.60
2022-12-11T09:23:44.113Z,0.70
2022-12-11T09:26:13.633Z,0.70
2022-12-11T09:28:44.382Z,0.70
2022-12-11T09:31:19.164Z,0.70
2022-12-11T09:33:46.056Z,0.80
2022-12-11T09:36:13.041Z,0.80
2022-12-11T09:38:40.135Z,0.80
2022-12-11T09:41:21.836Z,0.80
2022-12-11T09:44:15.585Z,0.90
2022-12-11T09:46:43.486Z,0.90
2022-12-11T09:49:35.410Z,0.80
2022-12-11T09:52:26.559Z,0.90
2022-12-11T09:55:01.762Z,1.00
2022-12-11T09:57:46.869Z,0.90
2022-12-11T10:00:31.722Z,1.00
2022-12-11T10:03:10.691Z,1.00
2022-12-11T10:05:58.381Z,0.90
2022-12-11T10:08:40.120Z,1.00
2022-12-11T10:11:38.752Z,1.10
2022-12-11T10:14:21.379Z,1.10
2022-12-11T10:16:52.627Z,1.20
2022-12-11T10:19:24.481Z,1.30
2022-12-11T10:21:53.605Z,1.30
2022-12-11T10:25:09.537Z,1.30
2022-12-11T10:27:27.442Z,1.30
2022-12-11T10:30:15.773Z,1.40
2022-12-11T10:32:49.797Z,1.50
2022-12-11T10:35:22.306Z,1.60
2022-12-11T10:37:48.923Z,1.60
2022-12-11T10:40:16.684Z,1.50
2022-12-11T10:42:53.134Z,1.30
2022-12-11T10:45:19.900Z,1.20
2022-12-11T10:47:46.691Z,1.20
2022-12-11T10:50:25.905Z,1.20
2022-12-11T10:52:53.072Z,1.30
2022-12-11T10:55:25.921Z,1.30
2022-12-11T10:58:02.510Z,1.40
2022-12-11T11:00:33.214Z,1.40
2022-12-11T11:03:01.330Z,1.40
2022-12-11T11:05:41.000Z,1.50
2022-12-11T11:08:22.377Z,1.60
2022-12-11T11:10:58.040Z,1.60
2022-12-11T11:13:28.077Z,1.80
2022-12-11T11:16:02.113Z,1.90
2022-12-11T11:18:30.280Z,1.90
2022-12-11T11:20:57.295Z,2.00
2022-12-11T11:23:25.269Z,2.10
2022-12-11T11:26:07.222Z,2.20
2022-12-11T11:28:46.793Z,2.40
2022-12-11T11:31:15.548Z,2.30
2022-12-11T11:33:57.188Z,2.30
2022-12-11T11:36:28.912Z,2.50
2022-12-11T11:39:25.808Z,2.70
2022-12-11T11:42:06.490Z,2.70
2022-12-11T11:44:39.557Z,2.70
2022-12-11T11:47:21.686Z,2.70
2022-12-11T11:49:57.720Z,2.30
2022-12-11T11:52:45.428Z,2.30
2022-12-11T11:55:28.598Z,3.20
2022-12-11T11:58:11.861Z,4.00
2022-12-11T12:00:38.460Z,4.60
2022-12-11T12:03:15.155Z,5.00
2022-12-11T12:05:49.090Z,5.10
2022-12-11T12:08:32.983Z,4.80
2022-12-11T12:11:28.214Z,4.40
2022-12-11T12:14:43.785Z,4.10
2022-12-11T12:17:08.707Z,3.50
2022-12-11T12:19:43.532Z,2.70
2022-12-11T12:22:43.763Z,2.40
2022-12-11T12:25:25.807Z,2.10
2022-12-11T12:28:17.480Z,2.00
2022-12-11T12:31:16.940Z,1.90
2022-12-11T12:34:11.175Z,2.00
2022-12-11T12:36:56.975Z,2.10
2022-12-11T12:39:48.172Z,2.00
2022-12-11T12:42:41.856Z,2.00
2022-12-11T12:45:19.844Z,2.00
2022-12-11T12:47:53.214Z,2.00
2022-12-11T12:50:23.936Z,1.90
2022-12-11T12:52:53.047Z,1.90
2022-12-11T12:55:24.294Z,2.00
2022-12-11T12:57:57.678Z,2.10
2022-12-11T13:00:31.958Z,2.10
2022-12-11T13:03:01.833Z,2.10
2022-12-11T13:05:30.465Z,2.00
2022-12-11T13:08:00.970Z,2.10
2022-12-11T13:10:36.628Z,2.20
2022-12-11T13:13:04.992Z,2.20
2022-12-11T13:15:36.524Z,2.40
2022-12-11T13:18:24.668Z,2.60
2022-12-11T13:20:52.231Z,2.80
2022-12-11T13:23:28.529Z,2.90
2022-12-11T13:26:00.816Z,3.20
2022-12-11T13:28:39.729Z,3.40
2022-12-11T13:31:08.036Z,3.60
2022-12-11T13:33:41.683Z,4.50
2022-12-11T13:36:15.936Z,5.00
2022-12-11T13:38:53.259Z,4.50
2022-12-11T13:41:20.716Z,4.40
2022-12-11T13:43:49.499Z,3.90
2022-12-11T13:46:26.229Z,3.70
2022-12-11T13:48:57.112Z,3.30
2022-12-11T13:51:25.325Z,3.00
2022-12-11T13:54:17.857Z,2.90
2022-12-11T13:56:58.857Z,2.80
2022-12-11T13:59:34.782Z,2.70
2022-12-11T14:02:23.702Z,2.50
2022-12-11T14:04:57.085Z,2.50
2022-12-11T14:07:51.626Z,2.30
2022-12-11T14:10:22.055Z,2.30
2022-12-11T14:12:56.576Z,2.10
2022-12-11T14:15:23.927Z,2.00
2022-12-11T14:17:52.048Z,1.90
2022-12-11T14:20:44.972Z,1.90
2022-12-11T14:23:18.647Z,1.80
2022-12-11T14:26:00.653Z,1.90
2022-12-11T14:28:36.008Z,1.90
2022-12-11T14:31:04.319Z,1.80
2022-12-11T14:34:00.708Z,1.70
2022-12-11T14:36:29.936Z,1.60
2022-12-11T14:39:03.223Z,1.50
2022-12-11T14:41:45.705Z,1.50
2022-12-11T14:44:18.484Z,1.50
2022-12-11T14:46:52.196Z,1.50
2022-12-11T14:50:02.943Z,1.40
2022-12-11T14:52:47.536Z,1.40
2022-12-11T14:55:24.480Z,1.40
2022-12-11T14:57:56.257Z,1.40
2022-12-11T15:00:25.170Z,1.40
2022-12-11T15:03:05.654Z,1.40
2022-12-11T15:05:38.911Z,1.40
2022-12-11T15:08:10.099Z,1.40
2022-12-11T15:10:42.542Z,1.30
2022-12-11T15:13:10.045Z,1.30
2022-12-11T15:15:45.452Z,1.30
2022-12-11T15:18:28.367Z,1.20
2022-12-11T15:20:59.563Z,1.30
2022-12-11T15:23:27.346Z,1.30
2022-12-11T15:25:57.632Z,1.30
2022-12-11T15:28:33.815Z,1.30
2022-12-11T15:31:04.289Z,1.30
2022-12-11T15:33:34.406Z,1.30
2022-12-11T15:36:03.013Z,1.20
2022-12-11T15:38:34.900Z,1.20
2022-12-11T15:41:02.505Z,1.30
2022-12-11T15:43:31.762Z,1.30
2022-12-11T15:45:58.432Z,1.20
2022-12-11T15:48:31.970Z,1.20
2022-12-11T15:50:58.910Z,1.20
2022-12-11T15:53:25.607Z,1.20
2022-12-11T15:55:52.846Z,1.20
2022-12-11T15:58:22.980Z,1.20
2022-12-11T16:00:49.668Z,1.20
2022-12-11T16:03:18.738Z,1.20
2022-12-11T16:05:45.804Z,1.20
2022-12-11T16:08:18.124Z,1.20
2022-12-11T16:10:45.996Z,1.20
2022-12-11T16:13:13.735Z,1.10
2022-12-11T16:15:43.700Z,1.20
2022-12-11T16:18:15.498Z,1.20
2022-12-11T16:20:43.925Z,1.20
2022-12-11T16:23:11.578Z,1.20
2022-12-11T16:25:39.860Z,1.20
2022-12-11T16:28:07.424Z,1.20
2022-12-11T16:30:36.117Z,1.10
2022-12-11T16:33:10.272Z,1.10
2022-12-11T16:35:45.982Z,1.10
2022-12-11T16:38:13.453Z,1.10
2022-12-11T16:40:41.362Z,1.20
2022-12-11T16:43:08.309Z,1.10
2022-12-11T16:45:34.999Z,1.00
2022-12-11T16:48:04.725Z,1.10
2022-12-11T16:50:32.282Z,1.10
2022-12-11T16:52:59.047Z,1.10
2022-12-11T16:55:25.685Z,1.20
2022-12-11T16:57:52.365Z,1.10
2022-12-11T17:00:19.748Z,1.10
2022-12-11T17:02:46.395Z,1.10
2022-12-11T17:05:13.875Z,1.00
2022-12-11T17:07:40.711Z,1.10
2022-12-11T17:10:07.975Z,1.00
2022-12-11T17:12:34.625Z,1.10
2022-12-11T17:15:04.525Z,1.10
2022-12-11T17:17:31.167Z,1.10
2022-12-11T17:19:57.856Z,1.10
2022-12-11T17:22:25.137Z,1.10
2022-12-11T17:24:51.875Z,1.10
2022-12-11T17:27:18.506Z,1.10
2022-12-11T17:29:45.213Z,1.10
2022-12-11T17:32:11.755Z,1.10
2022-12-11T17:34:38.812Z,1.10
2022-12-11T17:37:05.941Z,1.10
2022-12-11T17:39:32.625Z,1.10
2022-12-11T17:41:59.263Z,1.10
2022-12-11T17:44:26.627Z,1.10
2022-12-11T17:46:53.633Z,1.20
2022-12-11T17:49:20.319Z,1.20
2022-12-11T17:51:47.756Z,1.20
2022-12-11T17:54:14.679Z,1.30
2022-12-11T17:56:41.384Z,1.30
2022-12-11T17:59:08.081Z,1.30
2022-12-11T18:01:34.788Z,1.20
2022-12-11T18:04:02.263Z,1.20
2022-12-11T18:06:29.858Z,1.20
2022-12-11T18:08:57.730Z,1.10
2022-12-11T18:11:24.764Z,1.20
2022-12-11T18:13:52.371Z,1.20
2022-12-11T18:16:25.470Z,1.20
2022-12-11T18:18:52.710Z,1.20
2022-12-11T18:21:27.393Z,1.20
2022-12-11T18:23:54.438Z,1.10
2022-12-11T18:26:21.563Z,1.10
2022-12-11T18:28:50.011Z,1.20
2022-12-11T18:31:17.242Z,1.10
2022-12-11T18:33:45.642Z,1.10
2022-12-11T18:36:14.764Z,1.10
2022-12-11T18:38:42.205Z,1.10
2022-12-11T18:41:10.683Z,1.00
2022-12-11T18:43:37.649Z,1.00
2022-12-11T18:46:13.992Z,0.90
2022-12-11T18:48:41.653Z,0.90
2022-12-11T18:51:14.403Z,0.90
2022-12-11T18:53:41.198Z,0.80
2022-12-11T18:56:10.396Z,0.80
2022-12-11T18:58:37.638Z,0.70
2022-12-11T19:01:25.143Z,0.60
2022-12-11T19:03:58.818Z,0.60
2022-12-11T19:06:30.199Z,0.50
2022-12-11T19:08:58.101Z,0.30
2022-12-11T19:11:26.515Z,0.30
2022-12-11T19:13:56.997Z,0.30
2022-12-11T19:16:29.923Z,0.30
2022-12-11T19:19:01.427Z,0.30
2022-12-11T19:21:28.265Z,0.20
2022-12-11T19:23:54.985Z,0.20
2022-12-11T19:26:23.480Z,0.20
2022-12-11T19:28:51.307Z,0.30
2022-12-11T19:31:20.820Z,0.30
2022-12-11T19:33:47.798Z,0.30
2022-12-11T19:36:15.796Z,0.30
2022-12-11T19:38:44.250Z,0.20
2022-12-11T19:41:18.435Z,0.30
2022-12-11T19:43:45.298Z,0.20
2022-12-11T19:46:12.742Z,0.10
2022-12-11T19:48:41.472Z,0.10
2022-12-11T19:51:20.059Z,0.10
2022-12-11T19:53:48.550Z,0.00
2022-12-11T19:56:16.704Z,0.00
2022-12-11T19:58:43.875Z,0.00
2022-12-11T20:01:17.260Z,-0.10
2022-12-11T20:03:43.923Z,-0.10
2022-12-11T20:08:58.314Z,0.10
2022-12-11T20:11:25.442Z,0.10
2022-12-11T20:13:54.308Z,0.20
2022-12-11T20:16:33.651Z,0.10
2022-12-11T20:19:08.282Z,0.10
2022-12-11T20:21:34.904Z,0.10
2022-12-11T20:24:01.624Z,0.10
2022-12-11T20:26:29.822Z,0.10
2022-12-11T20:28:56.777Z,0.10
2022-12-11T20:31:25.160Z,0.00
2022-12-11T20:33:53.533Z,0.00
2022-12-11T20:36:21.712Z,0.00
2022-12-11T20:38:49.049Z,0.00
2022-12-11T20:41:18.879Z,0.00
2022-12-11T20:43:45.679Z,0.00
2022-12-11T20:46:15.203Z,0.00
2022-12-11T20:48:43.891Z,0.00
2022-12-11T20:51:12.840Z,0.00
2022-12-11T20:53:40.504Z,0.10
2022-12-11T20:56:12.629Z,0.00
2022-12-11T20:58:40.356Z,0.10
2022-12-11T21:01:07.061Z,0.10
2022-12-11T21:03:40.464Z,0.00
2022-12-11T21:06:16.804Z,0.00
2022-12-11T21:08:43.513Z,0.00
2022-12-11T21:11:10.466Z,0.10
2022-12-11T21:13:37.270Z,0.10
2022-12-11T21:16:06.162Z,0.00
2022-12-11T21:18:32.940Z,0.00
2022-12-11T21:20:59.975Z,0.00
2022-12-11T21:23:26.664Z,0.00
2022-12-11T21:25:53.348Z,-0.10
2022-12-11T21:28:20.624Z,-0.10
2022-12-11T21:30:47.249Z,-0.10
2022-12-11T21:33:13.994Z,-0.10
2022-12-11T21:35:40.640Z,0.00
2022-12-11T21:38:07.265Z,-0.10
2022-12-11T21:40:34.048Z,-0.10
2022-12-11T21:43:00.702Z,-0.10
2022-12-11T21:48:14.389Z,-0.10
2022-12-11T21:50:41.296Z,-0.10
2022-12-11T21:53:07.871Z,0.00
2022-12-11T21:55:34.503Z,0.00
2022-12-11T21:58:01.128Z,0.10
2022-12-11T22:00:28.186Z,0.20
2022-12-11T22:02:54.953Z,0.20
2022-12-11T22:05:21.817Z,0.20
2022-12-11T22:07:48.599Z,0.20
2022-12-11T22:10:15.321Z,0.30
2022-12-11T22:12:42.006Z,0.30
2022-12-11T22:15:09.314Z,0.30
2022-12-11T22:17:37.129Z,0.30
2022-12-11T22:20:05.905Z,0.30
2022-12-11T22:22:32.675Z,0.20
2022-12-11T22:24:59.366Z,0.30
2022-12-11T22:27:25.973Z,0.30
2022-12-11T22:29:52.665Z,0.30
2022-12-11T22:32:19.232Z,0.30
2022-12-11T22:34:45.856Z,0.30
2022-12-11T22:37:12.473Z,0.30
2022-12-11T22:39:39.081Z,0.30
2022-12-11T22:42:05.782Z,0.40
2022-12-11T22:44:32.437Z,0.50
2022-12-11T22:46:59.074Z,0.40
2022-12-11T22:49:25.705Z,0.40
2022-12-11T22:51:52.389Z,0.40
2022-12-11T22:54:18.973Z,0.40
2022-12-11T22:56:45.683Z,0.40
2022-12-11T22:59:12.540Z,0.50
2022-12-11T23:01:39.225Z,0.40
2022-12-11T23:04:05.973Z,0.40
2022-12-11T23:06:32.736Z,0.40
2022-12-11T23:09:00.385Z,0.50
2022-12-11T23:11:30.978Z,0.50
2022-12-11T23:13:58.051Z,0.50
2022-12-11T23:16:26.685Z,0.50
2022-12-11T23:18:55.049Z,0.50
2022-12-11T23:21:22.168Z,0.50
2022-12-11T23:23:48.990Z,0.50
2022-12-11T23:26:18.673Z,0.40
2022-12-11T23:28:46.163Z,0.40
2022-12-11T23:31:13.191Z,0.40
2022-12-11T23:33:39.895Z,0.40
2022-12-11T23:36:07.391Z,0.30
2022-12-11T23:38:34.081Z,0.30
2022-12-11T23:41:01.966Z,0.30
2022-12-11T23:43:28.790Z,0.20
2022-12-11T23:45:55.473Z,0.20
2022-12-11T23:48:22.417Z,0.10
2022-12-11T23:50:49.083Z,0.10
2022-12-11T23:53:15.884Z,0.00
2022-12-11T23:55:44.452Z,-0.10
2022-12-11T23:58:11.813Z,-0.10
